Time;durP1;ratioP1;P1;durP2;ratioP2;P2;SDS_P1;SDS_P2;PMS_P1;PMS_P2;Temp;Humidity;BMP_temperature;BMP_pressure;BME280_temperature;BME280_humidity;BME280_pressure;Samples;Min_cycle;Max_cycle;Signal;HPM_P1;HPM_P2
2021/07/08 00:01:05;;;;;;;16.08;12.65;;;14.90;97.50;;;;;;5032495;28;20087;-65
2021/07/08 00:03:30;;;;;;;17.35;12.40;;;14.80;97.60;;;;;;5034501;28;20400;-65
2021/07/08 00:05:56;;;;;;;22.08;15.40;;;14.80;97.60;;;;;;5024914;28;20034;-65
2021/07/08 00:08:22;;;;;;;17.38;13.52;;;14.80;97.70;;;;;;5015237;28;20029;-65
2021/07/08 00:10:51;;;;;;;15.23;12.70;;;14.80;97.80;;;;;;5045617;28;20472;-65
2021/07/08 00:13:20;;;;;;;18.85;13.27;;;14.80;97.80;;;;;;5032713;28;20357;-65
2021/07/08 00:15:45;;;;;;;17.63;13.45;;;14.80;97.80;;;;;;5026270;28;20064;-64
2021/07/08 00:18:12;;;;;;;22.80;14.27;;;14.80;97.90;;;;;;5034281;28;20452;-65
2021/07/08 00:20:40;;;;;;;14.48;11.38;;;14.80;98.00;;;;;;5032360;28;20035;-65
2021/07/08 00:23:06;;;;;;;12.93;10.35;;;14.70;97.90;;;;;;5031109;28;20025;-65
2021/07/08 00:25:32;;;;;;;14.73;10.90;;;14.70;97.90;;;;;;5031108;28;20022;-65
2021/07/08 00:27:58;;;;;;;17.45;11.57;;;14.70;97.90;;;;;;5029179;28;20079;-65
2021/07/08 00:30:24;;;;;;;17.65;12.50;;;14.70;98.00;;;;;;5033401;28;20037;-66
2021/07/08 00:32:51;;;;;;;14.77;12.43;;;14.70;98.10;;;;;;5026315;28;20509;-65
2021/07/08 00:35:17;;;;;;;16.77;12.32;;;14.70;98.10;;;;;;5022525;28;20037;-66
2021/07/08 00:37:43;;;;;;;11.20;9.90;;;14.70;98.10;;;;;;5014687;28;20109;-66
2021/07/08 00:40:11;;;;;;;9.85;8.15;;;14.70;98.00;;;;;;5030369;28;20037;-66
2021/07/08 00:42:37;;;;;;;9.48;8.30;;;14.70;98.00;;;;;;5032988;28;20113;-66
2021/07/08 00:45:08;;;;;;;12.23;9.30;;;14.70;98.00;;;;;;5031267;28;20025;-65
2021/07/08 00:47:34;;;;;;;12.07;10.00;;;14.70;98.00;;;;;;5029203;28;20117;-66
2021/07/08 00:49:59;;;;;;;14.90;11.10;;;14.70;98.10;;;;;;5032340;28;20108;-66
2021/07/08 00:52:25;;;;;;;15.05;11.85;;;14.70;98.00;;;;;;5024721;28;20033;-66
2021/07/08 00:54:50;;;;;;;13.07;11.13;;;14.70;98.10;;;;;;5030131;28;20080;-65
2021/07/08 00:57:16;;;;;;;13.90;11.65;;;14.80;98.20;;;;;;5025384;28;20442;-65
2021/07/08 00:59:44;;;;;;;10.32;8.68;;;14.80;98.20;;;;;;5020507;28;20017;-66
2021/07/08 01:02:13;;;;;;;12.50;9.52;;;14.80;98.10;;;;;;5027400;28;20030;-66
2021/07/08 01:04:42;;;;;;;12.30;9.25;;;14.80;98.10;;;;;;5022192;28;20027;-66
2021/07/08 01:07:09;;;;;;;8.85;6.80;;;14.90;98.10;;;;;;5022120;28;20107;-66
2021/07/08 01:09:35;;;;;;;11.45;9.57;;;14.90;98.10;;;;;;5023020;28;20120;-66
2021/07/08 01:12:00;;;;;;;10.88;9.45;;;14.90;98.10;;;;;;5024971;28;20092;-66
2021/07/08 01:14:26;;;;;;;13.25;10.38;;;14.90;98.10;;;;;;5032281;28;20033;-66
2021/07/08 01:16:51;;;;;;;16.20;11.90;;;14.90;98.10;;;;;;5029367;28;20183;-66
2021/07/08 01:19:17;;;;;;;18.27;13.27;;;14.90;98.10;;;;;;5023594;28;20484;-66
2021/07/08 01:21:42;;;;;;;16.17;12.15;;;14.90;98.10;;;;;;5030850;28;20068;-66
2021/07/08 01:24:08;;;;;;;13.73;11.63;;;14.90;98.10;;;;;;5032290;28;20472;-66
2021/07/08 01:26:39;;;;;;;16.20;12.55;;;14.80;98.20;;;;;;5030257;28;20037;-66
2021/07/08 01:29:04;;;;;;;17.33;13.73;;;14.80;98.20;;;;;;5031999;28;20029;-66
2021/07/08 01:31:30;;;;;;;17.33;14.27;;;14.80;98.20;;;;;;5032457;28;20092;-66
2021/07/08 01:33:56;;;;;;;21.13;13.35;;;14.80;98.30;;;;;;5033431;28;20086;-66
2021/07/08 01:36:22;;;;;;;18.35;12.70;;;14.80;98.30;;;;;;5030182;28;20041;-66
2021/07/08 01:38:47;;;;;;;15.82;13.27;;;14.80;98.40;;;;;;5024243;28;20030;-66
2021/07/08 01:41:14;;;;;;;15.65;13.68;;;14.80;98.50;;;;;;5032807;28;20052;-66
2021/07/08 01:43:41;;;;;;;15.68;12.40;;;14.80;98.50;;;;;;5030782;28;20025;-66
2021/07/08 01:46:16;;;;;;;18.50;12.38;;;14.80;98.50;;;;;;5026578;28;20022;-66
2021/07/08 01:48:43;;;;;;;14.13;11.60;;;14.80;98.50;;;;;;5029228;28;20041;-65
2021/07/08 01:51:34;;;;;;;16.27;12.90;;;14.80;98.50;;;;;;5028578;28;20022;-66
2021/07/08 01:54:02;;;;;;;15.32;12.18;;;14.90;98.50;;;;;;5014152;28;20567;-66
2021/07/08 01:56:28;;;;;;;17.63;13.05;;;14.90;98.50;;;;;;5029255;28;20476;-65
2021/07/08 01:58:54;;;;;;;17.60;13.50;;;14.80;98.50;;;;;;5031732;28;20029;-66
2021/07/08 02:01:20;;;;;;;17.70;12.98;;;14.80;98.50;;;;;;5029939;28;20041;-65
2021/07/08 02:03:46;;;;;;;14.38;11.32;;;14.80;98.50;;;;;;5029580;28;20103;-66
2021/07/08 02:06:12;;;;;;;17.10;12.20;;;14.80;98.50;;;;;;5030811;28;20033;-66
2021/07/08 02:08:38;;;;;;;17.85;12.52;;;14.80;98.60;;;;;;5025946;28;20060;-66
2021/07/08 02:11:04;;;;;;;17.30;12.40;;;14.80;98.60;;;;;;5029326;28;20037;-66
2021/07/08 02:13:32;;;;;;;17.30;11.30;;;14.80;98.60;;;;;;5024639;28;20084;-66
2021/07/08 02:15:57;;;;;;;15.88;12.20;;;14.80;98.70;;;;;;5024886;28;20049;-66
2021/07/08 02:18:24;;;;;;;17.40;12.35;;;14.80;98.70;;;;;;5027722;28;20025;-66
2021/07/08 02:20:50;;;;;;;14.82;11.27;;;14.80;98.70;;;;;;5036299;28;20029;-66
2021/07/08 02:23:15;;;;;;;12.57;11.27;;;14.80;98.70;;;;;;5035136;28;20022;-66
2021/07/08 02:25:41;;;;;;;14.77;10.95;;;14.80;98.70;;;;;;5030479;28;20030;-66
2021/07/08 02:28:06;;;;;;;15.10;11.80;;;14.80;98.70;;;;;;5024770;28;20030;-65
2021/07/08 02:30:32;;;;;;;16.02;10.23;;;14.80;98.80;;;;;;5031659;28;20100;-66
2021/07/08 02:32:58;;;;;;;14.18;11.15;;;14.90;98.80;;;;;;5035059;28;20029;-66
2021/07/08 02:35:26;;;;;;;18.08;12.05;;;14.80;98.70;;;;;;5033247;28;20036;-66
2021/07/08 02:37:53;;;;;;;15.00;11.27;;;14.80;98.70;;;;;;5024838;28;20029;-66
2021/07/08 02:40:29;;;;;;;14.95;10.98;;;14.90;98.80;;;;;;5018715;28;20468;-65
2021/07/08 02:42:55;;;;;;;14.70;11.77;;;14.90;98.80;;;;;;5036012;28;20383;-65
2021/07/08 02:45:23;;;;;;;15.43;12.10;;;14.90;98.80;;;;;;5032305;28;20045;-66
2021/07/08 02:47:49;;;;;;;17.50;12.18;;;14.90;98.80;;;;;;5034736;28;20080;-66
2021/07/08 02:50:15;;;;;;;17.20;12.23;;;14.90;98.80;;;;;;5025834;28;20037;-66
2021/07/08 02:52:42;;;;;;;12.45;11.25;;;14.90;98.80;;;;;;5024590;28;20026;-66
2021/07/08 02:55:08;;;;;;;16.73;12.32;;;14.90;98.80;;;;;;5032156;28;20029;-66
2021/07/08 02:57:34;;;;;;;15.70;11.55;;;14.90;98.80;;;;;;5025913;28;20029;-65
2021/07/08 02:59:59;;;;;;;15.52;11.82;;;15.00;98.80;;;;;;5019577;28;20036;-66
2021/07/08 03:02:25;;;;;;;16.83;12.10;;;15.00;98.80;;;;;;5025963;28;20133;-66
2021/07/08 03:04:51;;;;;;;19.23;12.07;;;15.00;98.70;;;;;;5034138;28;20034;-66
2021/07/08 03:07:17;;;;;;;16.30;11.60;;;15.00;98.80;;;;;;5024074;28;20527;-66
2021/07/08 03:09:43;;;;;;;15.15;11.85;;;15.00;98.80;;;;;;5029460;28;20045;-65
2021/07/08 03:12:10;;;;;;;14.55;11.55;;;15.00;98.80;;;;;;5033555;28;21383;-65
2021/07/08 03:14:35;;;;;;;19.00;13.23;;;15.00;98.80;;;;;;5034064;28;20022;-66
2021/07/08 03:17:01;;;;;;;16.60;13.27;;;15.00;98.90;;;;;;5026064;28;20032;-66
2021/07/08 03:19:26;;;;;;;19.60;12.88;;;15.10;98.90;;;;;;5033882;28;20399;-66
2021/07/08 03:21:52;;;;;;;19.60;13.02;;;15.10;98.90;;;;;;5032144;28;20082;-66
2021/07/08 03:24:17;;;;;;;14.93;12.32;;;15.20;98.90;;;;;;5016511;28;20037;-66
2021/07/08 03:26:43;;;;;;;15.20;12.63;;;15.20;98.90;;;;;;5026397;28;20032;-65
2021/07/08 03:29:09;;;;;;;16.10;12.45;;;15.30;98.90;;;;;;5028646;28;20538;-65
2021/07/08 03:31:34;;;;;;;17.33;13.07;;;15.30;98.90;;;;;;5029555;28;20025;-66
2021/07/08 03:34:00;;;;;;;15.35;12.00;;;15.30;98.90;;;;;;5030731;28;20083;-65
2021/07/08 03:36:26;;;;;;;16.67;12.68;;;15.30;98.90;;;;;;5033220;28;20467;-66
2021/07/08 03:38:51;;;;;;;17.42;12.63;;;15.30;98.90;;;;;;5028899;28;20032;-66
2021/07/08 03:41:17;;;;;;;20.10;13.90;;;15.40;99.00;;;;;;5032319;28;20036;-66
2021/07/08 03:43:43;;;;;;;20.77;13.52;;;15.40;98.90;;;;;;5033405;28;20476;-66
2021/07/08 03:46:08;;;;;;;18.10;14.10;;;15.40;99.00;;;;;;5026022;28;20473;-66
2021/07/08 03:48:34;;;;;;;15.30;12.93;;;15.40;98.90;;;;;;5024702;28;20033;-65
2021/07/08 03:51:00;;;;;;;15.35;12.02;;;15.40;99.00;;;;;;5033127;28;20032;-66
2021/07/08 03:53:25;;;;;;;16.60;13.40;;;15.40;99.00;;;;;;5030387;28;20018;-66
2021/07/08 03:55:51;;;;;;;16.40;13.15;;;15.50;99.10;;;;;;5029547;28;20438;-66
2021/07/08 03:58:16;;;;;;;15.15;11.95;;;15.50;99.00;;;;;;5032434;28;20104;-66
2021/07/08 04:00:43;;;;;;;22.67;13.25;;;15.50;99.00;;;;;;5033157;28;20087;-66
2021/07/08 04:03:11;;;;;;;16.27;12.75;;;15.50;99.00;;;;;;5029790;28;20026;-66
2021/07/08 04:05:38;;;;;;;15.27;11.60;;;15.50;99.00;;;;;;5024609;28;20029;-66
2021/07/08 04:08:05;;;;;;;13.60;11.60;;;15.50;99.00;;;;;;5020787;28;20320;-65
2021/07/08 04:10:31;;;;;;;14.77;11.38;;;15.50;99.00;;;;;;5032716;28;20465;-65
2021/07/08 04:12:57;;;;;;;22.67;13.07;;;15.50;99.00;;;;;;5034047;28;20397;-66
2021/07/08 04:15:23;;;;;;;18.85;14.23;;;15.60;99.00;;;;;;5029014;28;20041;-66
2021/07/08 04:17:49;;;;;;;18.02;13.75;;;15.60;99.00;;;;;;5019218;28;20117;-65
2021/07/08 04:20:18;;;;;;;16.90;13.25;;;15.60;99.00;;;;;;5026131;28;20033;-65
2021/07/08 04:22:45;;;;;;;16.70;13.45;;;15.60;99.00;;;;;;5032743;28;20029;-66
2021/07/08 04:25:11;;;;;;;15.70;12.98;;;15.60;99.00;;;;;;5031310;28;20110;-66
2021/07/08 04:27:37;;;;;;;17.05;12.57;;;15.70;99.00;;;;;;5031341;28;20021;-65
2021/07/08 04:30:06;;;;;;;20.65;13.52;;;15.70;99.00;;;;;;5031034;28;20028;-66
2021/07/08 04:32:31;;;;;;;16.95;13.85;;;15.80;99.10;;;;;;5033341;28;20087;-65
2021/07/08 04:34:57;;;;;;;16.95;13.15;;;15.90;99.10;;;;;;5031483;28;20021;-66
2021/07/08 04:37:22;;;;;;;16.45;12.80;;;16.00;99.10;;;;;;5019903;28;20104;-66
2021/07/08 04:39:48;;;;;;;16.27;13.18;;;16.10;99.00;;;;;;5031978;28;20386;-65
2021/07/08 04:42:14;;;;;;;17.60;14.00;;;16.20;99.00;;;;;;5028473;28;20049;-65
2021/07/08 04:44:39;;;;;;;17.30;13.55;;;16.40;99.00;;;;;;5019063;28;20026;-66
2021/07/08 04:47:05;;;;;;;19.73;13.95;;;16.60;98.90;;;;;;5031439;28;20040;-66
2021/07/08 04:49:31;;;;;;;17.23;13.93;;;16.70;98.80;;;;;;5028838;28;20473;-66
2021/07/08 04:51:57;;;;;;;18.17;15.15;;;16.70;98.70;;;;;;5032177;28;20030;-65
2021/07/08 04:54:22;;;;;;;20.95;16.55;;;16.90;98.50;;;;;;5027317;28;20083;-65
2021/07/08 04:56:48;;;;;;;19.80;14.95;;;16.90;98.30;;;;;;5030524;28;20029;-65
2021/07/08 04:59:13;;;;;;;21.08;16.15;;;17.00;98.20;;;;;;5025597;28;20052;-65
2021/07/08 05:01:39;;;;;;;17.67;15.57;;;17.00;98.40;;;;;;5024395;28;20097;-67
2021/07/08 05:04:04;;;;;;;23.95;17.38;;;17.10;98.10;;;;;;5025051;28;20432;-65
2021/07/08 05:06:30;;;;;;;21.52;15.32;;;17.10;98.10;;;;;;5030718;28;20029;-65
2021/07/08 05:08:55;;;;;;;19.40;15.93;;;17.10;98.00;;;;;;5026125;28;20029;-65
2021/07/08 05:11:21;;;;;;;19.75;16.48;;;17.10;98.00;;;;;;5030708;28;20032;-65
2021/07/08 05:13:46;;;;;;;18.33;15.98;;;17.10;98.00;;;;;;5032403;28;20415;-65
2021/07/08 05:16:12;;;;;;;18.83;16.13;;;17.10;97.90;;;;;;5031830;28;20053;-65
2021/07/08 05:18:37;;;;;;;19.25;15.15;;;17.10;97.90;;;;;;5033205;28;20036;-65
2021/07/08 05:21:03;;;;;;;18.63;16.67;;;17.10;98.00;;;;;;5030778;28;20067;-65
2021/07/08 05:23:31;;;;;;;19.17;15.60;;;17.30;98.20;;;;;;5032901;28;20031;-65
2021/07/08 05:25:56;;;;;;;18.38;14.48;;;17.40;98.10;;;;;;5029274;28;20029;-66
2021/07/08 05:28:22;;;;;;;23.20;14.77;;;17.60;98.10;;;;;;5026314;28;20033;-66
2021/07/08 05:30:48;;;;;;;14.32;12.85;;;17.80;98.00;;;;;;5030811;28;20022;-66
2021/07/08 05:33:13;;;;;;;19.58;14.55;;;17.90;97.80;;;;;;5025220;28;20083;-65
2021/07/08 05:35:39;;;;;;;13.45;12.02;;;18.10;98.00;;;;;;5026264;28;20079;-66
2021/07/08 05:38:06;;;;;;;12.52;11.18;;;18.40;97.60;;;;;;5027171;28;20033;-67
2021/07/08 05:40:32;;;;;;;14.52;12.13;;;18.60;97.50;;;;;;5024975;28;20030;-66
2021/07/08 05:42:57;;;;;;;11.35;10.25;;;18.90;97.10;;;;;;5023827;28;20039;-66
2021/07/08 05:45:23;;;;;;;15.80;12.07;;;19.20;96.60;;;;;;5029331;28;20038;-66
2021/07/08 05:47:50;;;;;;;10.85;9.75;;;19.50;96.00;;;;;;5028806;28;20486;-66
2021/07/08 05:50:16;;;;;;;12.10;9.75;;;19.80;95.60;;;;;;5026828;28;20423;-66
2021/07/08 05:52:41;;;;;;;14.13;12.20;;;20.00;95.00;;;;;;5023638;28;20080;-67
2021/07/08 05:55:08;;;;;;;14.68;10.50;;;20.10;94.30;;;;;;5028941;28;20028;-67
2021/07/08 05:57:33;;;;;;;13.05;10.35;;;20.20;93.80;;;;;;5031584;28;20037;-65
2021/07/08 05:59:59;;;;;;;15.32;11.68;;;20.30;93.40;;;;;;5019758;28;20110;-66
2021/07/08 06:02:24;;;;;;;12.40;11.05;;;20.30;92.80;;;;;;5027786;28;20736;-66
2021/07/08 06:04:50;;;;;;;19.30;11.82;;;20.20;92.30;;;;;;5028424;28;20025;-66
2021/07/08 06:07:15;;;;;;;13.02;11.73;;;20.00;92.40;;;;;;5016894;28;20038;-66
2021/07/08 06:09:41;;;;;;;12.73;11.48;;;19.90;92.30;;;;;;5017427;28;20024;-66
2021/07/08 06:12:06;;;;;;;14.60;13.10;;;19.80;92.40;;;;;;5025551;28;20204;-66
2021/07/08 06:14:32;;;;;;;18.58;13.23;;;19.70;92.50;;;;;;5017857;28;21662;-66
2021/07/08 06:16:58;;;;;;;15.32;13.00;;;19.80;92.40;;;;;;5028720;28;20037;-66
2021/07/08 06:19:23;;;;;;;15.02;12.73;;;19.70;92.30;;;;;;5030607;28;20045;-66
2021/07/08 06:21:49;;;;;;;14.32;12.88;;;19.70;92.40;;;;;;5029485;28;20033;-67
2021/07/08 06:24:16;;;;;;;16.10;12.82;;;19.70;92.60;;;;;;5024209;28;20132;-67
2021/07/08 06:26:42;;;;;;;14.60;12.27;;;19.80;92.50;;;;;;5020709;28;20033;-67
2021/07/08 06:29:08;;;;;;;16.70;13.00;;;19.80;92.40;;;;;;5032655;28;20041;-66
2021/07/08 06:31:33;;;;;;;15.85;12.25;;;19.80;92.30;;;;;;5031372;28;20057;-66
2021/07/08 06:33:59;;;;;;;20.90;15.05;;;19.80;92.30;;;;;;5030098;28;20107;-68
2021/07/08 06:36:25;;;;;;;16.80;13.00;;;19.90;92.30;;;;;;5022609;28;20065;-67
2021/07/08 06:38:51;;;;;;;17.30;13.73;;;19.90;92.00;;;;;;5032530;28;20025;-66
2021/07/08 06:41:16;;;;;;;19.33;13.70;;;19.90;91.80;;;;;;5029519;28;20033;-67
2021/07/08 06:43:42;;;;;;;19.90;14.25;;;19.90;91.80;;;;;;5030505;28;20036;-67
2021/07/08 06:46:08;;;;;;;18.20;14.50;;;19.90;91.70;;;;;;5029986;28;20061;-67
2021/07/08 06:48:34;;;;;;;19.50;13.60;;;19.90;91.50;;;;;;5028971;28;20034;-67
2021/07/08 06:51:00;;;;;;;15.85;12.60;;;20.00;91.40;;;;;;5029586;28;20101;-68
2021/07/08 06:53:25;;;;;;;14.38;11.70;;;20.10;91.30;;;;;;5030554;28;20112;-68
2021/07/08 06:55:51;;;;;;;16.33;12.05;;;20.20;91.20;;;;;;5032457;28;20100;-67
2021/07/08 06:58:16;;;;;;;18.42;12.10;;;20.20;91.00;;;;;;5030220;28;20045;-67
2021/07/08 07:00:43;;;;;;;16.20;12.93;;;20.30;90.80;;;;;;5025371;28;20061;-68
2021/07/08 07:03:09;;;;;;;18.63;14.05;;;20.40;90.70;;;;;;5031614;28;20029;-67
2021/07/08 07:05:34;;;;;;;17.98;13.10;;;20.40;90.60;;;;;;5014996;28;20104;-65
2021/07/08 07:08:00;;;;;;;17.20;11.85;;;20.50;90.50;;;;;;5027992;28;20037;-65
2021/07/08 07:10:27;;;;;;;17.45;12.23;;;20.60;90.40;;;;;;5035817;28;20025;-65
2021/07/08 07:12:54;;;;;;;14.10;10.85;;;20.70;90.40;;;;;;5028909;28;20560;-66
2021/07/08 07:15:24;;;;;;;14.60;11.25;;;20.70;90.20;;;;;;5026537;28;20120;-66
2021/07/08 07:17:50;;;;;;;12.55;9.10;;;20.80;89.80;;;;;;5032923;28;20029;-67
2021/07/08 07:20:17;;;;;;;12.55;8.90;;;20.90;89.30;;;;;;5032686;28;20029;-66
2021/07/08 07:22:48;;;;;;;15.20;10.02;;;21.00;88.90;;;;;;5033407;28;20029;-66
2021/07/08 07:25:18;;;;;;;12.38;9.20;;;20.90;88.00;;;;;;5033764;28;20482;-67
2021/07/08 07:27:48;;;;;;;12.20;8.52;;;21.00;88.10;;;;;;5032528;28;20061;-67
2021/07/08 07:30:14;;;;;;;11.85;8.32;;;21.00;87.60;;;;;;5026078;28;20047;-68
2021/07/08 07:32:42;;;;;;;17.67;8.55;;;21.00;87.30;;;;;;5032082;28;20108;-66
2021/07/08 07:35:08;;;;;;;11.20;8.60;;;21.10;86.80;;;;;;5033871;28;20349;-66
2021/07/08 07:37:33;;;;;;;9.25;7.25;;;21.20;86.30;;;;;;5033152;28;20040;-66
2021/07/08 07:39:59;;;;;;;10.63;7.28;;;21.30;86.30;;;;;;5034084;28;20502;-66
2021/07/08 07:42:25;;;;;;;10.18;7.53;;;21.30;85.70;;;;;;5033808;28;20086;-66
2021/07/08 07:44:51;;;;;;;14.00;7.40;;;21.40;86.30;;;;;;5035114;28;20071;-66
2021/07/08 07:47:17;;;;;;;8.52;6.97;;;21.40;86.00;;;;;;5031576;28;20115;-66
2021/07/08 07:49:43;;;;;;;9.45;7.18;;;21.30;86.10;;;;;;5035468;28;20017;-66
2021/07/08 07:52:12;;;;;;;9.45;7.05;;;21.30;85.90;;;;;;5033892;28;20051;-66
2021/07/08 07:54:38;;;;;;;10.55;6.85;;;21.30;85.80;;;;;;5034730;28;20018;-66
2021/07/08 07:57:05;;;;;;;10.65;7.13;;;21.40;86.30;;;;;;5033428;28;20064;-66
2021/07/08 07:59:32;;;;;;;13.55;8.88;;;21.50;86.00;;;;;;5034284;28;20033;-66
2021/07/08 08:01:58;;;;;;;15.20;9.35;;;21.60;84.80;;;;;;5032935;28;20037;-66
2021/07/08 08:04:28;;;;;;;12.60;9.00;;;21.70;84.00;;;;;;5035035;28;20086;-66
2021/07/08 08:09:38;;;;;;;14.15;9.88;;;21.80;83.60;;;;;;5034043;28;20486;-66
2021/07/08 08:12:04;;;;;;;9.57;8.45;;;21.90;83.10;;;;;;5034705;28;20037;-66
2021/07/08 08:14:30;;;;;;;15.10;8.57;;;21.80;83.10;;;;;;5033487;28;20041;-66
2021/07/08 08:16:57;;;;;;;11.88;8.63;;;21.90;83.60;;;;;;5032254;28;20443;-66
2021/07/08 08:19:22;;;;;;;13.57;8.98;;;22.00;83.70;;;;;;5030025;28;20025;-67
2021/07/08 08:21:48;;;;;;;15.57;8.07;;;22.10;84.00;;;;;;5031335;28;20084;-66
2021/07/08 08:24:13;;;;;;;12.23;8.57;;;22.20;84.00;;;;;;5033791;28;20391;-66
2021/07/08 08:26:39;;;;;;;13.90;6.75;;;22.30;83.10;;;;;;5033342;28;20025;-65
2021/07/08 08:29:04;;;;;;;11.07;6.95;;;22.40;83.40;;;;;;5033483;28;20497;-66
2021/07/08 08:31:33;;;;;;;7.47;4.78;;;22.60;82.80;;;;;;5033897;28;20025;-66
2021/07/08 08:33:58;;;;;;;7.55;4.68;;;22.70;81.30;;;;;;5032707;28;20038;-66
2021/07/08 08:36:24;;;;;;;9.40;3.97;;;22.70;80.60;;;;;;5030559;28;20431;-66
2021/07/08 08:38:50;;;;;;;4.47;3.85;;;22.80;80.60;;;;;;5032031;28;20154;-66
2021/07/08 08:41:15;;;;;;;6.18;3.40;;;22.90;80.00;;;;;;5031285;28;20040;-66
2021/07/08 08:43:41;;;;;;;7.22;3.67;;;23.00;79.60;;;;;;5033147;28;20017;-67
2021/07/08 08:46:11;;;;;;;7.30;3.03;;;23.10;78.60;;;;;;5034046;28;20091;-66
2021/07/08 08:48:36;;;;;;;5.80;4.10;;;23.30;77.60;;;;;;5031288;28;20029;-66
2021/07/08 08:51:02;;;;;;;5.85;3.47;;;23.50;76.90;;;;;;5033284;28;20582;-66
2021/07/08 08:53:28;;;;;;;6.30;3.92;;;23.60;76.50;;;;;;5033795;28;20545;-66
2021/07/08 08:55:53;;;;;;;9.05;3.88;;;23.70;75.50;;;;;;5033037;28;20033;-66
2021/07/08 08:58:20;;;;;;;5.68;2.67;;;23.80;75.50;;;;;;5033966;28;20107;-66
2021/07/08 09:00:50;;;;;;;4.80;2.60;;;23.90;74.50;;;;;;5031474;28;20033;-66
2021/07/08 09:03:35;;;;;;;4.95;2.10;;;24.00;73.50;;;;;;5033514;28;20033;-66
2021/07/08 09:06:10;;;;;;;5.70;2.67;;;23.90;73.70;;;;;;5032199;28;20026;-66
2021/07/08 09:08:44;;;;;;;4.63;2.13;;;24.00;72.60;;;;;;5033632;28;20032;-66
2021/07/08 09:11:19;;;;;;;4.32;2.30;;;24.10;72.80;;;;;;5032838;28;20024;-66
2021/07/08 09:14:06;;;;;;;5.40;2.28;;;24.10;72.60;;;;;;5035809;28;20097;-66
2021/07/08 09:16:40;;;;;;;4.93;2.30;;;24.10;72.20;;;;;;5023515;28;20049;-66
2021/07/08 09:19:18;;;;;;;3.42;2.42;;;24.10;72.60;;;;;;5028097;28;20037;-66
2021/07/08 09:21:48;;;;;;;6.90;3.03;;;24.20;70.60;;;;;;5022890;28;20075;-66
2021/07/08 09:24:21;;;;;;;4.22;1.95;;;24.30;70.00;;;;;;5031095;28;20028;-66
2021/07/08 09:27:04;;;;;;;3.85;2.17;;;24.30;68.90;;;;;;5022635;28;20392;-66
2021/07/08 09:29:33;;;;;;;3.38;2.17;;;24.40;69.30;;;;;;5033515;28;20117;-66
2021/07/08 09:32:00;;;;;;;5.28;2.40;;;24.50;69.30;;;;;;5032568;28;20026;-66
2021/07/08 09:34:27;;;;;;;7.32;3.10;;;24.50;69.90;;;;;;5033341;28;20018;-66
2021/07/08 09:37:15;;;;;;;4.75;1.70;;;24.60;69.20;;;;;;5032801;28;20059;-66
2021/07/08 09:39:56;;;;;;;4.15;2.40;;;24.60;69.00;;;;;;5032297;28;20100;-66
2021/07/08 09:42:37;;;;;;;4.55;2.05;;;24.50;68.60;;;;;;5030265;28;20037;-66
2021/07/08 09:45:06;;;;;;;4.28;2.08;;;24.50;68.80;;;;;;5033140;28;20072;-66
2021/07/08 09:47:32;;;;;;;5.65;2.35;;;24.60;68.70;;;;;;5030490;28;20032;-66
2021/07/08 09:49:58;;;;;;;4.90;2.75;;;24.70;67.50;;;;;;5032970;28;20030;-66
2021/07/08 09:52:23;;;;;;;3.25;1.52;;;24.60;67.10;;;;;;5032288;28;20045;-66
2021/07/08 09:55:02;;;;;;;4.68;1.70;;;24.40;67.70;;;;;;5033300;28;20025;-66
2021/07/08 09:57:35;;;;;;;4.50;1.73;;;24.20;68.80;;;;;;5032250;28;20117;-66
2021/07/08 10:00:04;;;;;;;3.35;1.63;;;24.00;68.90;;;;;;5031801;28;20057;-66
2021/07/08 10:02:31;;;;;;;5.70;2.13;;;24.00;69.80;;;;;;5031153;28;20036;-66
2021/07/08 10:04:59;;;;;;;4.50;1.42;;;24.00;68.40;;;;;;5032898;28;20033;-66
2021/07/08 10:07:24;;;;;;;2.25;1.13;;;24.00;68.30;;;;;;5032951;28;20498;-66
2021/07/08 10:09:51;;;;;;;3.17;1.55;;;24.00;67.80;;;;;;5032308;28;20021;-66
2021/07/08 10:12:17;;;;;;;5.10;1.48;;;24.10;67.20;;;;;;5022628;28;20060;-66
2021/07/08 10:14:43;;;;;;;4.57;2.50;;;24.20;67.30;;;;;;5028552;28;20026;-66
2021/07/08 10:17:11;;;;;;;4.70;2.10;;;24.30;66.30;;;;;;5021158;28;20033;-67
2021/07/08 10:19:38;;;;;;;4.60;2.58;;;24.40;65.30;;;;;;5029977;28;20072;-66
2021/07/08 10:22:06;;;;;;;3.38;1.80;;;24.50;64.80;;;;;;5025985;28;20044;-66
2021/07/08 10:24:32;;;;;;;5.47;1.85;;;24.40;64.80;;;;;;5032470;28;20378;-66
2021/07/08 10:26:57;;;;;;;4.88;1.38;;;24.30;65.00;;;;;;5024512;28;20068;-68
2021/07/08 10:29:23;;;;;;;4.65;2.13;;;24.20;65.60;;;;;;5030847;28;20029;-67
2021/07/08 10:31:51;;;;;;;3.80;1.92;;;24.20;65.30;;;;;;5025320;28;20036;-67
2021/07/08 10:34:19;;;;;;;4.85;1.40;;;24.20;66.00;;;;;;5031280;28;20033;-68
2021/07/08 10:36:50;;;;;;;2.22;1.55;;;24.30;66.10;;;;;;5032338;28;20083;-65
2021/07/08 10:39:23;;;;;;;4.45;2.38;;;24.40;65.50;;;;;;5027604;28;20029;-65
2021/07/08 10:41:54;;;;;;;2.45;0.93;;;24.50;64.80;;;;;;5022912;28;20040;-65
2021/07/08 10:44:41;;;;;;;3.50;1.40;;;24.60;66.00;;;;;;5023737;28;20021;-65
2021/07/08 10:47:37;;;;;;;2.30;1.40;;;24.80;65.50;;;;;;5021370;28;20488;-66
2021/07/08 10:50:06;;;;;;;3.92;1.75;;;24.90;64.80;;;;;;5029806;28;20021;-67
2021/07/08 10:53:13;;;;;;;3.05;1.33;;;25.00;63.80;;;;;;5036220;28;20029;-67
2021/07/08 10:55:41;;;;;;;3.67;1.67;;;24.90;64.20;;;;;;5024923;28;20026;-68
2021/07/08 10:58:27;;;;;;;3.35;1.55;;;24.80;63.90;;;;;;5024977;28;20026;-67
2021/07/08 11:00:52;;;;;;;2.25;1.25;;;24.80;64.20;;;;;;5025520;28;20022;-67
2021/07/08 11:03:39;;;;;;;2.40;1.20;;;24.80;64.00;;;;;;5030079;28;20432;-65
2021/07/08 11:06:18;;;;;;;3.72;1.25;;;24.90;64.40;;;;;;5025054;28;20030;-66
2021/07/08 11:08:48;;;;;;;2.30;1.30;;;25.10;64.30;;;;;;5036024;28;20025;-66
2021/07/08 11:11:22;;;;;;;3.25;1.20;;;25.20;62.60;;;;;;5035619;28;20088;-66
2021/07/08 11:13:50;;;;;;;2.78;1.02;;;25.10;61.80;;;;;;5035804;28;20460;-66
2021/07/08 11:16:54;;;;;;;2.53;1.30;;;25.00;62.60;;;;;;5035467;28;20415;-66
2021/07/08 11:19:19;;;;;;;4.93;1.20;;;25.00;62.30;;;;;;5032518;28;20036;-66
2021/07/08 11:22:08;;;;;;;3.22;1.05;;;25.00;62.90;;;;;;5030273;28;20037;-66
2021/07/08 11:24:47;;;;;;;2.45;1.00;;;25.10;62.20;;;;;;5024724;28;20027;-66
2021/07/08 11:27:21;;;;;;;1.60;0.98;;;25.20;61.90;;;;;;5014304;28;20516;-66
2021/07/08 11:29:54;;;;;;;4.13;1.40;;;25.30;62.30;;;;;;5024625;28;20109;-66
2021/07/08 11:32:30;;;;;;;2.40;1.00;;;25.50;61.20;;;;;;5033549;28;20048;-66
2021/07/08 11:35:29;;;;;;;2.00;0.70;;;25.60;60.40;;;;;;5035476;28;20075;-66
2021/07/08 11:38:18;;;;;;;3.65;0.90;;;25.80;60.10;;;;;;5024066;28;20017;-66
2021/07/08 11:40:49;;;;;;;3.20;1.10;;;25.70;59.80;;;;;;5028670;28;20500;-65
2021/07/08 11:43:27;;;;;;;2.63;0.73;;;25.50;60.90;;;;;;5032698;28;20124;-66
2021/07/08 11:45:55;;;;;;;2.05;0.80;;;25.60;61.20;;;;;;5035227;28;20034;-65
2021/07/08 11:48:32;;;;;;;1.90;0.85;;;25.90;60.70;;;;;;5034988;28;20152;-66
2021/07/08 11:50:58;;;;;;;3.65;1.42;;;26.10;59.80;;;;;;5031637;28;20025;-66
2021/07/08 11:53:24;;;;;;;2.15;0.90;;;26.30;60.10;;;;;;5033776;28;20461;-66
2021/07/08 11:55:56;;;;;;;1.88;0.80;;;26.40;59.80;;;;;;5035219;28;20118;-66
2021/07/08 11:58:27;;;;;;;4.20;1.08;;;26.60;59.60;;;;;;5034985;28;20506;-67
2021/07/08 12:00:56;;;;;;;1.70;0.93;;;26.70;59.30;;;;;;5035018;28;20087;-66
2021/07/08 12:03:30;;;;;;;4.45;0.93;;;26.60;59.00;;;;;;5034346;28;20488;-66
2021/07/08 12:06:00;;;;;;;4.70;0.95;;;26.60;58.10;;;;;;5032731;28;20041;-66
2021/07/08 12:08:32;;;;;;;3.25;0.90;;;26.70;58.00;;;;;;5034976;28;20503;-66
2021/07/08 12:11:08;;;;;;;3.83;1.27;;;26.80;58.30;;;;;;5033549;28;20361;-66
2021/07/08 12:13:53;;;;;;;3.05;1.38;;;26.60;57.40;;;;;;5026073;28;20030;-66
2021/07/08 12:16:31;;;;;;;1.85;1.10;;;26.40;57.20;;;;;;5034607;28;20049;-66
2021/07/08 12:18:58;;;;;;;2.45;0.90;;;26.20;57.50;;;;;;5024239;28;20029;-66
2021/07/08 12:21:45;;;;;;;2.20;0.80;;;26.20;57.80;;;;;;5030108;28;20120;-66
2021/07/08 12:24:25;;;;;;;2.53;1.30;;;26.30;57.70;;;;;;5014289;28;20034;-66
2021/07/08 12:26:56;;;;;;;4.07;1.27;;;26.30;57.10;;;;;;5033022;28;20025;-66
2021/07/08 12:29:32;;;;;;;1.67;0.93;;;26.20;57.70;;;;;;5034673;28;20181;-66
2021/07/08 12:32:00;;;;;;;3.22;1.40;;;26.00;58.40;;;;;;5033804;28;20107;-66
2021/07/08 12:34:49;;;;;;;3.28;1.25;;;25.80;58.50;;;;;;5034675;28;20064;-65
2021/07/08 12:37:20;;;;;;;3.10;1.25;;;25.80;58.30;;;;;;5034263;28;20442;-65
2021/07/08 12:40:06;;;;;;;3.95;1.05;;;25.90;57.40;;;;;;5034296;28;20033;-66
2021/07/08 12:42:42;;;;;;;2.55;1.00;;;26.10;57.30;;;;;;5033899;28;20171;-66
2021/07/08 12:45:16;;;;;;;2.13;0.60;;;26.10;56.90;;;;;;5032050;28;20481;-66